sensor_id;sensor_type;location;lat;lon;timestamp;P1;durP1;ratioP1;P2;durP2;ratioP2
55467;SDS011;41332;42.702;23.200;2022-09-13T00:01:15;3.58;;;3.30;;
55467;SDS011;41332;42.702;23.200;2022-09-13T00:03:40;3.60;;;3.13;;
55467;SDS011;41332;42.702;23.200;2022-09-13T00:06:07;3.58;;;3.28;;
55467;SDS011;41332;42.702;23.200;2022-09-13T00:08:33;3.55;;;3.28;;
55467;SDS011;41332;42.702;23.200;2022-09-13T00:10:58;3.78;;;3.45;;
55467;SDS011;41332;42.702;23.200;2022-09-13T00:13:24;3.67;;;3.00;;
55467;SDS011;41332;42.702;23.200;2022-09-13T00:15:49;3.65;;;3.35;;
55467;SDS011;41332;42.702;23.200;2022-09-13T00:18:15;3.28;;;3.08;;
55467;SDS011;41332;42.702;23.200;2022-09-13T00:20:42;4.68;;;3.67;;
55467;SDS011;41332;42.702;23.200;2022-09-13T00:23:07;4.35;;;3.00;;
55467;SDS011;41332;42.702;23.200;2022-09-13T00:25:33;3.95;;;3.05;;
55467;SDS011;41332;42.702;23.200;2022-09-13T00:27:59;3.78;;;3.47;;
55467;SDS011;41332;42.702;23.200;2022-09-13T00:30:24;5.43;;;3.55;;
55467;SDS011;41332;42.702;23.200;2022-09-13T00:32:49;3.50;;;3.20;;
55467;SDS011;41332;42.702;23.200;2022-09-13T00:35:15;4.13;;;3.00;;
55467;SDS011;41332;42.702;23.200;2022-09-13T00:37:40;3.88;;;3.15;;
55467;SDS011;41332;42.702;23.200;2022-09-13T00:40:06;3.67;;;3.35;;
55467;SDS011;41332;42.702;23.200;2022-09-13T00:42:32;5.95;;;3.33;;
55467;SDS011;41332;42.702;23.200;2022-09-13T00:44:59;6.00;;;3.90;;
55467;SDS011;41332;42.702;23.200;2022-09-13T00:50:10;3.37;;;3.07;;
55467;SDS011;41332;42.702;23.200;2022-09-13T00:52:39;3.25;;;2.92;;
55467;SDS011;41332;42.702;23.200;2022-09-13T00:55:08;5.18;;;3.25;;
55467;SDS011;41332;42.702;23.200;2022-09-13T00:57:40;3.95;;;3.65;;
55467;SDS011;41332;42.702;23.200;2022-09-13T01:02:37;4.38;;;3.22;;
55467;SDS011;41332;42.702;23.200;2022-09-13T01:05:05;4.72;;;3.17;;
55467;SDS011;41332;42.702;23.200;2022-09-13T01:07:31;3.95;;;3.60;;
55467;SDS011;41332;42.702;23.200;2022-09-13T01:09:57;3.03;;;2.80;;
55467;SDS011;41332;42.702;23.200;2022-09-13T01:12:33;3.75;;;3.50;;
55467;SDS011;41332;42.702;23.200;2022-09-13T01:15:08;4.22;;;3.17;;
55467;SDS011;41332;42.702;23.200;2022-09-13T01:17:33;4.20;;;3.80;;
55467;SDS011;41332;42.702;23.200;2022-09-13T01:20:00;4.80;;;3.72;;
55467;SDS011;41332;42.702;23.200;2022-09-13T01:28:17;3.25;;;2.97;;
55467;SDS011;41332;42.702;23.200;2022-09-13T01:30:56;3.40;;;3.20;;
55467;SDS011;41332;42.702;23.200;2022-09-13T01:39:33;5.18;;;3.40;;
55467;SDS011;41332;42.702;23.200;2022-09-13T01:44:55;3.88;;;3.50;;
55467;SDS011;41332;42.702;23.200;2022-09-13T01:57:56;3.22;;;2.92;;
55467;SDS011;41332;42.702;23.200;2022-09-13T02:00:34;6.75;;;3.90;;
55467;SDS011;41332;42.702;23.200;2022-09-13T02:03:09;5.00;;;3.70;;
55467;SDS011;41332;42.702;23.200;2022-09-13T02:05:58;4.53;;;4.05;;
55467;SDS011;41332;42.702;23.200;2022-09-13T02:08:48;4.03;;;3.72;;
55467;SDS011;41332;42.702;23.200;2022-09-13T02:11:17;5.22;;;3.70;;
55467;SDS011;41332;42.702;23.200;2022-09-13T02:13:50;3.25;;;2.95;;
55467;SDS011;41332;42.702;23.200;2022-09-13T02:16:20;4.25;;;3.85;;
55467;SDS011;41332;42.702;23.200;2022-09-13T02:18:54;3.50;;;3.20;;
55467;SDS011;41332;42.702;23.200;2022-09-13T02:21:28;3.92;;;3.63;;
55467;SDS011;41332;42.702;23.200;2022-09-13T02:24:01;3.28;;;3.08;;
55467;SDS011;41332;42.702;23.200;2022-09-13T02:26:30;3.38;;;3.05;;
55467;SDS011;41332;42.702;23.200;2022-09-13T02:29:00;4.28;;;2.97;;
55467;SDS011;41332;42.702;23.200;2022-09-13T02:31:35;4.40;;;3.85;;
55467;SDS011;41332;42.702;23.200;2022-09-13T02:34:07;3.90;;;3.55;;
55467;SDS011;41332;42.702;23.200;2022-09-13T02:36:37;4.03;;;3.10;;
55467;SDS011;41332;42.702;23.200;2022-09-13T02:39:10;2.95;;;2.75;;
55467;SDS011;41332;42.702;23.200;2022-09-13T02:41:40;3.92;;;3.63;;
55467;SDS011;41332;42.702;23.200;2022-09-13T02:44:21;3.92;;;3.45;;
55467;SDS011;41332;42.702;23.200;2022-09-13T02:57:43;4.30;;;3.90;;
55467;SDS011;41332;42.702;23.200;2022-09-13T03:00:16;4.50;;;4.20;;
55467;SDS011;41332;42.702;23.200;2022-09-13T03:02:41;2.90;;;2.70;;
55467;SDS011;41332;42.702;23.200;2022-09-13T03:05:09;3.35;;;3.10;;
55467;SDS011;41332;42.702;23.200;2022-09-13T03:07:35;3.63;;;3.33;;
55467;SDS011;41332;42.702;23.200;2022-09-13T03:10:01;5.43;;;3.63;;
55467;SDS011;41332;42.702;23.200;2022-09-13T03:18:36;3.15;;;2.92;;
55467;SDS011;41332;42.702;23.200;2022-09-13T03:21:29;3.97;;;2.83;;
55467;SDS011;41332;42.702;23.200;2022-09-13T03:29:43;2.95;;;2.75;;
55467;SDS011;41332;42.702;23.200;2022-09-13T03:37:32;3.28;;;2.97;;
55467;SDS011;41332;42.702;23.200;2022-09-13T03:40:13;3.47;;;3.13;;
55467;SDS011;41332;42.702;23.200;2022-09-13T03:42:57;3.03;;;2.72;;
55467;SDS011;41332;42.702;23.200;2022-09-13T03:45:31;5.07;;;3.92;;
55467;SDS011;41332;42.702;23.200;2022-09-13T03:47:59;3.28;;;2.97;;
55467;SDS011;41332;42.702;23.200;2022-09-13T03:50:28;3.63;;;3.30;;
55467;SDS011;41332;42.702;23.200;2022-09-13T03:52:55;3.80;;;3.50;;
55467;SDS011;41332;42.702;23.200;2022-09-13T03:55:25;3.92;;;3.00;;
55467;SDS011;41332;42.702;23.200;2022-09-13T03:57:51;3.58;;;2.53;;
55467;SDS011;41332;42.702;23.200;2022-09-13T04:00:16;3.33;;;3.00;;
55467;SDS011;41332;42.702;23.200;2022-09-13T04:02:42;2.88;;;2.67;;
55467;SDS011;41332;42.702;23.200;2022-09-13T04:05:08;3.92;;;3.13;;
55467;SDS011;41332;42.702;23.200;2022-09-13T04:07:33;3.60;;;2.60;;
55467;SDS011;41332;42.702;23.200;2022-09-13T04:09:59;2.88;;;2.67;;
55467;SDS011;41332;42.702;23.200;2022-09-13T04:12:25;3.15;;;2.95;;
55467;SDS011;41332;42.702;23.200;2022-09-13T04:14:52;3.25;;;2.97;;
55467;SDS011;41332;42.702;23.200;2022-09-13T04:17:17;3.20;;;3.00;;
55467;SDS011;41332;42.702;23.200;2022-09-13T04:19:43;3.67;;;2.75;;
55467;SDS011;41332;42.702;23.200;2022-09-13T04:22:11;9.23;;;2.80;;
55467;SDS011;41332;42.702;23.200;2022-09-13T04:24:37;6.05;;;2.80;;
55467;SDS011;41332;42.702;23.200;2022-09-13T04:27:03;4.15;;;3.08;;
55467;SDS011;41332;42.702;23.200;2022-09-13T04:29:29;3.05;;;2.80;;
55467;SDS011;41332;42.702;23.200;2022-09-13T04:31:55;2.25;;;2.15;;
55467;SDS011;41332;42.702;23.200;2022-09-13T04:34:21;2.70;;;2.50;;
55467;SDS011;41332;42.702;23.200;2022-09-13T04:36:47;2.88;;;2.67;;
55467;SDS011;41332;42.702;23.200;2022-09-13T04:39:13;2.45;;;2.25;;
55467;SDS011;41332;42.702;23.200;2022-09-13T04:41:42;2.60;;;2.40;;
55467;SDS011;41332;42.702;23.200;2022-09-13T04:44:10;2.47;;;2.05;;
55467;SDS011;41332;42.702;23.200;2022-09-13T04:46:36;2.60;;;2.40;;
55467;SDS011;41332;42.702;23.200;2022-09-13T04:49:01;2.90;;;2.70;;
55467;SDS011;41332;42.702;23.200;2022-09-13T04:51:27;3.20;;;3.00;;
55467;SDS011;41332;42.702;23.200;2022-09-13T04:53:53;5.05;;;3.17;;
55467;SDS011;41332;42.702;23.200;2022-09-13T04:56:20;4.22;;;2.90;;
55467;SDS011;41332;42.702;23.200;2022-09-13T04:58:47;3.63;;;2.60;;
55467;SDS011;41332;42.702;23.200;2022-09-13T05:01:15;4.15;;;2.83;;
55467;SDS011;41332;42.702;23.200;2022-09-13T05:03:41;3.00;;;2.50;;
55467;SDS011;41332;42.702;23.200;2022-09-13T05:06:07;3.58;;;2.53;;
55467;SDS011;41332;42.702;23.200;2022-09-13T05:08:35;5.35;;;2.30;;
55467;SDS011;41332;42.702;23.200;2022-09-13T05:11:01;2.90;;;2.70;;
55467;SDS011;41332;42.702;23.200;2022-09-13T05:13:28;3.03;;;2.40;;
55467;SDS011;41332;42.702;23.200;2022-09-13T05:15:54;2.58;;;2.35;;
55467;SDS011;41332;42.702;23.200;2022-09-13T05:18:21;4.05;;;2.25;;
55467;SDS011;41332;42.702;23.200;2022-09-13T05:20:52;2.70;;;2.50;;
55467;SDS011;41332;42.702;23.200;2022-09-13T05:23:18;3.42;;;2.63;;
55467;SDS011;41332;42.702;23.200;2022-09-13T05:25:43;3.92;;;2.78;;
55467;SDS011;41332;42.702;23.200;2022-09-13T05:28:09;2.40;;;2.20;;
55467;SDS011;41332;42.702;23.200;2022-09-13T05:30:36;3.03;;;2.63;;
55467;SDS011;41332;42.702;23.200;2022-09-13T05:33:01;2.33;;;2.15;;
55467;SDS011;41332;42.702;23.200;2022-09-13T05:35:26;3.22;;;2.17;;
55467;SDS011;41332;42.702;23.200;2022-09-13T05:37:52;2.88;;;2.67;;
55467;SDS011;41332;42.702;23.200;2022-09-13T05:40:17;2.80;;;2.42;;
55467;SDS011;41332;42.702;23.200;2022-09-13T05:42:42;4.85;;;2.08;;
55467;SDS011;41332;42.702;23.200;2022-09-13T05:45:08;2.72;;;2.50;;
55467;SDS011;41332;42.702;23.200;2022-09-13T05:47:34;3.88;;;3.53;;
55467;SDS011;41332;42.702;23.200;2022-09-13T05:49:59;3.22;;;2.38;;
55467;SDS011;41332;42.702;23.200;2022-09-13T05:52:25;4.25;;;2.80;;
55467;SDS011;41332;42.702;23.200;2022-09-13T05:54:50;2.15;;;2.03;;
55467;SDS011;41332;42.702;23.200;2022-09-13T05:57:15;2.50;;;2.30;;
55467;SDS011;41332;42.702;23.200;2022-09-13T05:59:41;2.67;;;2.47;;
55467;SDS011;41332;42.702;23.200;2022-09-13T06:02:08;4.03;;;2.17;;
55467;SDS011;41332;42.702;23.200;2022-09-13T06:06:59;2.10;;;1.83;;
55467;SDS011;41332;42.702;23.200;2022-09-13T06:09:24;2.38;;;2.17;;
55467;SDS011;41332;42.702;23.200;2022-09-13T06:11:50;3.63;;;2.22;;
55467;SDS011;41332;42.702;23.200;2022-09-13T06:14:15;5.18;;;2.45;;
55467;SDS011;41332;42.702;23.200;2022-09-13T06:16:41;2.47;;;2.20;;
55467;SDS011;41332;42.702;23.200;2022-09-13T06:19:06;2.47;;;2.28;;
55467;SDS011;41332;42.702;23.200;2022-09-13T06:21:32;2.63;;;2.28;;
55467;SDS011;41332;42.702;23.200;2022-09-13T06:23:58;2.13;;;1.92;;
55467;SDS011;41332;42.702;23.200;2022-09-13T06:26:24;2.30;;;2.10;;
55467;SDS011;41332;42.702;23.200;2022-09-13T06:28:52;1.92;;;1.80;;
55467;SDS011;41332;42.702;23.200;2022-09-13T06:31:22;2.88;;;1.88;;
55467;SDS011;41332;42.702;23.200;2022-09-13T06:33:53;2.72;;;2.22;;
55467;SDS011;41332;42.702;23.200;2022-09-13T06:36:21;1.80;;;1.70;;
55467;SDS011;41332;42.702;23.200;2022-09-13T06:38:46;2.13;;;1.90;;
55467;SDS011;41332;42.702;23.200;2022-09-13T06:41:16;2.28;;;2.17;;
55467;SDS011;41332;42.702;23.200;2022-09-13T06:43:43;2.10;;;1.63;;
55467;SDS011;41332;42.702;23.200;2022-09-13T06:46:16;2.45;;;2.03;;
55467;SDS011;41332;42.702;23.200;2022-09-13T06:48:43;1.77;;;1.67;;
55467;SDS011;41332;42.702;23.200;2022-09-13T06:51:11;1.92;;;1.70;;
55467;SDS011;41332;42.702;23.200;2022-09-13T06:53:38;1.95;;;1.73;;
55467;SDS011;41332;42.702;23.200;2022-09-13T06:56:06;1.88;;;1.77;;
55467;SDS011;41332;42.702;23.200;2022-09-13T06:58:34;1.30;;;1.20;;
55467;SDS011;41332;42.702;23.200;2022-09-13T07:01:20;1.90;;;1.73;;
55467;SDS011;41332;42.702;23.200;2022-09-13T07:03:48;1.73;;;1.63;;
55467;SDS011;41332;42.702;23.200;2022-09-13T07:06:19;2.50;;;1.40;;
55467;SDS011;41332;42.702;23.200;2022-09-13T07:08:47;2.17;;;1.98;;
55467;SDS011;41332;42.702;23.200;2022-09-13T07:11:14;8.32;;;1.73;;
55467;SDS011;41332;42.702;23.200;2022-09-13T07:13:46;1.52;;;1.42;;
55467;SDS011;41332;42.702;23.200;2022-09-13T07:16:15;5.93;;;1.60;;
55467;SDS011;41332;42.702;23.200;2022-09-13T07:18:41;1.48;;;1.38;;
55467;SDS011;41332;42.702;23.200;2022-09-13T07:21:08;1.58;;;1.48;;
55467;SDS011;41332;42.702;23.200;2022-09-13T07:23:35;2.38;;;1.70;;
55467;SDS011;41332;42.702;23.200;2022-09-13T07:26:03;1.80;;;1.70;;
55467;SDS011;41332;42.702;23.200;2022-09-13T07:28:36;1.30;;;1.30;;
55467;SDS011;41332;42.702;23.200;2022-09-13T07:31:10;1.70;;;1.60;;
55467;SDS011;41332;42.702;23.200;2022-09-13T07:33:40;1.83;;;1.73;;
55467;SDS011;41332;42.702;23.200;2022-09-13T07:36:07;1.20;;;1.10;;
55467;SDS011;41332;42.702;23.200;2022-09-13T07:38:33;2.55;;;1.55;;
55467;SDS011;41332;42.702;23.200;2022-09-13T07:41:00;1.77;;;1.67;;
55467;SDS011;41332;42.702;23.200;2022-09-13T07:43:26;1.73;;;1.63;;
55467;SDS011;41332;42.702;23.200;2022-09-13T07:45:59;2.97;;;1.60;;
55467;SDS011;41332;42.702;23.200;2022-09-13T07:48:27;2.55;;;1.50;;
55467;SDS011;41332;42.702;23.200;2022-09-13T07:51:01;1.70;;;1.60;;
55467;SDS011;41332;42.702;23.200;2022-09-13T07:53:29;1.38;;;1.27;;
55467;SDS011;41332;42.702;23.200;2022-09-13T07:55:59;1.98;;;1.70;;
55467;SDS011;41332;42.702;23.200;2022-09-13T07:58:25;1.38;;;1.38;;
55467;SDS011;41332;42.702;23.200;2022-09-13T08:00:51;1.60;;;1.50;;
55467;SDS011;41332;42.702;23.200;2022-09-13T08:03:16;1.52;;;1.42;;
55467;SDS011;41332;42.702;23.200;2022-09-13T08:05:41;1.63;;;1.52;;
55467;SDS011;41332;42.702;23.200;2022-09-13T08:08:07;1.27;;;1.15;;
55467;SDS011;41332;42.702;23.200;2022-09-13T08:10:32;2.08;;;1.27;;
55467;SDS011;41332;42.702;23.200;2022-09-13T08:12:58;1.83;;;1.73;;
55467;SDS011;41332;42.702;23.200;2022-09-13T08:15:25;1.42;;;1.33;;
55467;SDS011;41332;42.702;23.200;2022-09-13T08:17:51;1.17;;;1.08;;
55467;SDS011;41332;42.702;23.200;2022-09-13T08:20:18;1.60;;;1.50;;
55467;SDS011;41332;42.702;23.200;2022-09-13T08:22:44;1.45;;;1.35;;
55467;SDS011;41332;42.702;23.200;2022-09-13T08:25:09;1.13;;;1.10;;
55467;SDS011;41332;42.702;23.200;2022-09-13T08:27:35;1.40;;;1.33;;
55467;SDS011;41332;42.702;23.200;2022-09-13T08:30:01;1.52;;;1.42;;
55467;SDS011;41332;42.702;23.200;2022-09-13T08:32:26;1.17;;;0.90;;
55467;SDS011;41332;42.702;23.200;2022-09-13T08:34:52;1.25;;;1.25;;
55467;SDS011;41332;42.702;23.200;2022-09-13T08:37:17;2.03;;;1.92;;
55467;SDS011;41332;42.702;23.200;2022-09-13T08:39:43;2.85;;;1.50;;
55467;SDS011;41332;42.702;23.200;2022-09-13T08:44:49;1.60;;;1.50;;
55467;SDS011;41332;42.702;23.200;2022-09-13T08:50:13;1.73;;;1.50;;
55467;SDS011;41332;42.702;23.200;2022-09-13T09:01:10;1.40;;;1.30;;
55467;SDS011;41332;42.702;23.200;2022-09-13T09:06:12;1.50;;;1.27;;
55467;SDS011;41332;42.702;23.200;2022-09-13T09:08:51;1.92;;;1.77;;
55467;SDS011;41332;42.702;23.200;2022-09-13T09:11:30;1.42;;;1.33;;
55467;SDS011;41332;42.702;23.200;2022-09-13T09:14:07;2.88;;;1.38;;
55467;SDS011;41332;42.702;23.200;2022-09-13T09:16:59;1.90;;;1.77;;
55467;SDS011;41332;42.702;23.200;2022-09-13T09:19:29;1.95;;;1.85;;
55467;SDS011;41332;42.702;23.200;2022-09-13T09:22:04;1.60;;;1.50;;
55467;SDS011;41332;42.702;23.200;2022-09-13T09:24:43;2.00;;;1.88;;
55467;SDS011;41332;42.702;23.200;2022-09-13T09:27:15;2.58;;;1.38;;
55467;SDS011;41332;42.702;23.200;2022-09-13T09:29:42;1.85;;;1.75;;
55467;SDS011;41332;42.702;23.200;2022-09-13T09:38:00;2.30;;;1.13;;
55467;SDS011;41332;42.702;23.200;2022-09-13T09:40:31;1.95;;;1.50;;
55467;SDS011;41332;42.702;23.200;2022-09-13T09:42:59;1.23;;;1.23;;
55467;SDS011;41332;42.702;23.200;2022-09-13T09:45:26;1.20;;;1.15;;
55467;SDS011;41332;42.702;23.200;2022-09-13T09:47:58;1.15;;;1.15;;
55467;SDS011;41332;42.702;23.200;2022-09-13T09:50:29;0.90;;;0.90;;
55467;SDS011;41332;42.702;23.200;2022-09-13T09:55:31;1.20;;;1.20;;
55467;SDS011;41332;42.702;23.200;2022-09-13T09:58:05;1.52;;;1.42;;
55467;SDS011;41332;42.702;23.200;2022-09-13T10:00:36;2.33;;;1.35;;
55467;SDS011;41332;42.702;23.200;2022-09-13T10:03:33;1.15;;;1.15;;
55467;SDS011;41332;42.702;23.200;2022-09-13T10:06:05;1.50;;;1.38;;
55467;SDS011;41332;42.702;23.200;2022-09-13T10:08:37;1.60;;;1.50;;
55467;SDS011;41332;42.702;23.200;2022-09-13T10:11:06;1.13;;;1.13;;
55467;SDS011;41332;42.702;23.200;2022-09-13T10:13:32;1.40;;;1.30;;
55467;SDS011;41332;42.702;23.200;2022-09-13T10:15:59;1.25;;;1.25;;
55467;SDS011;41332;42.702;23.200;2022-09-13T10:18:28;1.08;;;1.08;;
55467;SDS011;41332;42.702;23.200;2022-09-13T10:23:39;1.35;;;1.35;;
55467;SDS011;41332;42.702;23.200;2022-09-13T10:26:06;3.22;;;1.23;;
55467;SDS011;41332;42.702;23.200;2022-09-13T10:28:40;1.65;;;1.55;;
55467;SDS011;41332;42.702;23.200;2022-09-13T10:31:10;1.75;;;1.02;;
55467;SDS011;41332;42.702;23.200;2022-09-13T10:33:43;1.70;;;1.10;;
55467;SDS011;41332;42.702;23.200;2022-09-13T10:36:13;1.55;;;1.45;;
55467;SDS011;41332;42.702;23.200;2022-09-13T10:38:45;1.40;;;1.35;;
55467;SDS011;41332;42.702;23.200;2022-09-13T10:41:36;1.33;;;1.23;;
55467;SDS011;41332;42.702;23.200;2022-09-13T10:44:08;1.10;;;1.05;;
55467;SDS011;41332;42.702;23.200;2022-09-13T10:46:50;1.13;;;1.02;;
55467;SDS011;41332;42.702;23.200;2022-09-13T10:49:35;2.63;;;1.30;;
55467;SDS011;41332;42.702;23.200;2022-09-13T10:52:32;1.13;;;1.13;;
55467;SDS011;41332;42.702;23.200;2022-09-13T10:55:15;2.30;;;1.15;;
55467;SDS011;41332;42.702;23.200;2022-09-13T10:57:47;1.35;;;1.25;;
55467;SDS011;41332;42.702;23.200;2022-09-13T11:00:18;1.38;;;1.05;;
55467;SDS011;41332;42.702;23.200;2022-09-13T11:15:58;1.50;;;1.40;;
55467;SDS011;41332;42.702;23.200;2022-09-13T11:26:51;1.27;;;1.23;;
55467;SDS011;41332;42.702;23.200;2022-09-13T11:44:02;1.63;;;1.40;;
55467;SDS011;41332;42.702;23.200;2022-09-13T11:57:52;1.15;;;1.13;;
55467;SDS011;41332;42.702;23.200;2022-09-13T12:00:22;1.00;;;1.00;;
55467;SDS011;41332;42.702;23.200;2022-09-13T12:05:32;1.48;;;1.17;;
55467;SDS011;41332;42.702;23.200;2022-09-13T12:08:05;1.00;;;1.00;;
55467;SDS011;41332;42.702;23.200;2022-09-13T12:10:45;1.10;;;1.10;;
55467;SDS011;41332;42.702;23.200;2022-09-13T12:13:28;1.25;;;1.15;;
55467;SDS011;41332;42.702;23.200;2022-09-13T12:15:59;1.65;;;1.35;;
55467;SDS011;41332;42.702;23.200;2022-09-13T12:18:36;1.75;;;1.02;;
55467;SDS011;41332;42.702;23.200;2022-09-13T12:21:05;1.10;;;1.10;;
55467;SDS011;41332;42.702;23.200;2022-09-13T12:23:35;1.20;;;1.10;;
55467;SDS011;41332;42.702;23.200;2022-09-13T12:28:41;0.93;;;0.93;;
55467;SDS011;41332;42.702;23.200;2022-09-13T12:31:12;2.15;;;0.93;;
55467;SDS011;41332;42.702;23.200;2022-09-13T12:33:43;1.27;;;0.90;;
55467;SDS011;41332;42.702;23.200;2022-09-13T12:39:07;1.58;;;1.48;;
55467;SDS011;41332;42.702;23.200;2022-09-13T12:47:01;1.00;;;1.00;;
55467;SDS011;41332;42.702;23.200;2022-09-13T12:49:39;1.00;;;1.00;;
55467;SDS011;41332;42.702;23.200;2022-09-13T12:55:49;1.23;;;1.13;;
55467;SDS011;41332;42.702;23.200;2022-09-13T13:01:16;1.08;;;0.98;;
55467;SDS011;41332;42.702;23.200;2022-09-13T13:03:55;1.02;;;1.00;;
55467;SDS011;41332;42.702;23.200;2022-09-13T13:08:57;1.40;;;1.23;;
55467;SDS011;41332;42.702;23.200;2022-09-13T13:11:26;1.70;;;1.23;;
55467;SDS011;41332;42.702;23.200;2022-09-13T13:18:56;2.13;;;1.45;;
55467;SDS011;41332;42.702;23.200;2022-09-13T13:21:30;2.25;;;1.10;;
55467;SDS011;41332;42.702;23.200;2022-09-13T13:29:12;2.20;;;1.35;;
55467;SDS011;41332;42.702;23.200;2022-09-13T13:34:41;1.73;;;1.63;;
55467;SDS011;41332;42.702;23.200;2022-09-13T13:39:33;1.67;;;1.58;;
55467;SDS011;41332;42.702;23.200;2022-09-13T13:54:31;1.73;;;1.63;;
55467;SDS011;41332;42.702;23.200;2022-09-13T13:57:30;1.65;;;1.55;;
55467;SDS011;41332;42.702;23.200;2022-09-13T14:13:44;3.10;;;1.88;;
55467;SDS011;41332;42.702;23.200;2022-09-13T14:16:42;1.85;;;1.75;;
55467;SDS011;41332;42.702;23.200;2022-09-13T14:19:37;1.55;;;1.38;;
55467;SDS011;41332;42.702;23.200;2022-09-13T14:22:05;1.90;;;1.80;;
55467;SDS011;41332;42.702;23.200;2022-09-13T14:24:37;1.52;;;1.42;;
55467;SDS011;41332;42.702;23.200;2022-09-13T14:27:09;2.17;;;1.90;;
55467;SDS011;41332;42.702;23.200;2022-09-13T14:29:39;1.60;;;1.50;;
55467;SDS011;41332;42.702;23.200;2022-09-13T14:32:10;5.78;;;2.35;;
55467;SDS011;41332;42.702;23.200;2022-09-13T14:34:48;1.50;;;1.40;;
55467;SDS011;41332;42.702;23.200;2022-09-13T14:37:32;1.35;;;1.27;;
55467;SDS011;41332;42.702;23.200;2022-09-13T14:42:40;1.67;;;1.58;;
55467;SDS011;41332;42.702;23.200;2022-09-13T14:45:14;1.80;;;1.70;;
55467;SDS011;41332;42.702;23.200;2022-09-13T14:47:50;1.75;;;1.23;;
55467;SDS011;41332;42.702;23.200;2022-09-13T14:50:23;1.65;;;1.55;;
55467;SDS011;41332;42.702;23.200;2022-09-13T14:55:25;2.08;;;1.20;;
55467;SDS011;41332;42.702;23.200;2022-09-13T14:57:55;1.38;;;1.38;;
55467;SDS011;41332;42.702;23.200;2022-09-13T15:00:27;1.38;;;1.27;;
55467;SDS011;41332;42.702;23.200;2022-09-13T15:02:54;2.73;;;1.87;;
55467;SDS011;41332;42.702;23.200;2022-09-13T15:05:24;1.60;;;1.50;;
55467;SDS011;41332;42.702;23.200;2022-09-13T15:07:53;1.60;;;1.50;;
55467;SDS011;41332;42.702;23.200;2022-09-13T15:10:23;1.88;;;1.77;;
55467;SDS011;41332;42.702;23.200;2022-09-13T15:17:56;1.58;;;1.15;;
55467;SDS011;41332;42.702;23.200;2022-09-13T15:20:29;3.22;;;2.03;;
55467;SDS011;41332;42.702;23.200;2022-09-13T15:28:49;1.88;;;1.48;;
55467;SDS011;41332;42.702;23.200;2022-09-13T15:31:25;1.60;;;1.50;;
55467;SDS011;41332;42.702;23.200;2022-09-13T15:37:30;2.00;;;1.90;;
55467;SDS011;41332;42.702;23.200;2022-09-13T15:39:29;2.28;;;2.17;;
55467;SDS011;41332;42.702;23.200;2022-09-13T15:42:13;2.35;;;1.88;;
55467;SDS011;41332;42.702;23.200;2022-09-13T15:44:40;2.40;;;2.22;;
55467;SDS011;41332;42.702;23.200;2022-09-13T15:47:10;4.13;;;2.00;;
55467;SDS011;41332;42.702;23.200;2022-09-13T15:49:40;1.95;;;1.85;;
55467;SDS011;41332;42.702;23.200;2022-09-13T15:52:13;2.60;;;2.47;;
55467;SDS011;41332;42.702;23.200;2022-09-13T15:54:39;2.03;;;1.92;;
55467;SDS011;41332;42.702;23.200;2022-09-13T15:57:07;1.90;;;1.80;;
55467;SDS011;41332;42.702;23.200;2022-09-13T15:59:37;2.22;;;2.10;;
55467;SDS011;41332;42.702;23.200;2022-09-13T16:02:16;2.33;;;2.22;;
55467;SDS011;41332;42.702;23.200;2022-09-13T16:04:42;2.55;;;2.17;;
55467;SDS011;41332;42.702;23.200;2022-09-13T16:07:07;3.00;;;2.53;;
55467;SDS011;41332;42.702;23.200;2022-09-13T16:09:33;1.95;;;1.85;;
55467;SDS011;41332;42.702;23.200;2022-09-13T16:11:59;4.53;;;2.80;;
55467;SDS011;41332;42.702;23.200;2022-09-13T16:14:24;2.20;;;2.10;;
55467;SDS011;41332;42.702;23.200;2022-09-13T16:16:49;2.42;;;2.28;;
55467;SDS011;41332;42.702;23.200;2022-09-13T16:19:19;2.47;;;2.38;;
55467;SDS011;41332;42.702;23.200;2022-09-13T16:21:46;3.25;;;2.67;;
55467;SDS011;41332;42.702;23.200;2022-09-13T16:24:12;2.60;;;2.50;;
55467;SDS011;41332;42.702;23.200;2022-09-13T16:26:38;3.70;;;3.20;;
55467;SDS011;41332;42.702;23.200;2022-09-13T16:29:05;2.85;;;2.65;;
55467;SDS011;41332;42.702;23.200;2022-09-13T16:31:30;2.40;;;2.30;;
55467;SDS011;41332;42.702;23.200;2022-09-13T16:33:56;2.15;;;2.00;;
55467;SDS011;41332;42.702;23.200;2022-09-13T16:36:22;2.05;;;1.95;;
55467;SDS011;41332;42.702;23.200;2022-09-13T16:38:47;2.00;;;1.90;;
55467;SDS011;41332;42.702;23.200;2022-09-13T16:41:13;1.90;;;1.80;;
55467;SDS011;41332;42.702;23.200;2022-09-13T16:43:38;2.15;;;2.05;;
55467;SDS011;41332;42.702;23.200;2022-09-13T16:46:07;4.45;;;2.28;;
55467;SDS011;41332;42.702;23.200;2022-09-13T16:48:34;2.45;;;2.25;;
55467;SDS011;41332;42.702;23.200;2022-09-13T16:51:03;2.50;;;2.30;;
55467;SDS011;41332;42.702;23.200;2022-09-13T16:53:30;3.08;;;2.47;;
55467;SDS011;41332;42.702;23.200;2022-09-13T16:56:04;2.63;;;2.42;;
55467;SDS011;41332;42.702;23.200;2022-09-13T16:58:37;2.97;;;2.78;;
55467;SDS011;41332;42.702;23.200;2022-09-13T17:01:04;2.30;;;2.10;;
55467;SDS011;41332;42.702;23.200;2022-09-13T17:03:31;3.13;;;2.60;;
55467;SDS011;41332;42.702;23.200;2022-09-13T17:05:58;3.33;;;3.03;;
55467;SDS011;41332;42.702;23.200;2022-09-13T17:08:25;2.97;;;2.78;;
55467;SDS011;41332;42.702;23.200;2022-09-13T17:10:50;4.18;;;2.30;;
55467;SDS011;41332;42.702;23.200;2022-09-13T17:13:16;3.03;;;2.83;;
55467;SDS011;41332;42.702;23.200;2022-09-13T17:15:41;2.78;;;2.67;;
55467;SDS011;41332;42.702;23.200;2022-09-13T17:18:07;2.95;;;2.75;;
55467;SDS011;41332;42.702;23.200;2022-09-13T17:20:32;2.58;;;2.47;;
55467;SDS011;41332;42.702;23.200;2022-09-13T17:22:58;2.60;;;2.40;;
55467;SDS011;41332;42.702;23.200;2022-09-13T17:25:24;3.05;;;2.75;;
55467;SDS011;41332;42.702;23.200;2022-09-13T17:27:50;3.35;;;3.15;;
55467;SDS011;41332;42.702;23.200;2022-09-13T17:30:16;5.32;;;2.90;;
55467;SDS011;41332;42.702;23.200;2022-09-13T17:32:42;2.88;;;2.78;;
55467;SDS011;41332;42.702;23.200;2022-09-13T17:35:07;2.45;;;2.28;;
55467;SDS011;41332;42.702;23.200;2022-09-13T17:37:34;2.67;;;2.58;;
55467;SDS011;41332;42.702;23.200;2022-09-13T17:40:00;4.00;;;3.00;;
55467;SDS011;41332;42.702;23.200;2022-09-13T17:42:25;2.50;;;2.40;;
55467;SDS011;41332;42.702;23.200;2022-09-13T17:44:51;3.00;;;2.67;;
55467;SDS011;41332;42.702;23.200;2022-09-13T17:47:16;3.13;;;2.85;;
55467;SDS011;41332;42.702;23.200;2022-09-13T17:49:42;3.80;;;3.10;;
55467;SDS011;41332;42.702;23.200;2022-09-13T17:52:08;2.85;;;2.65;;
55467;SDS011;41332;42.702;23.200;2022-09-13T17:54:33;3.05;;;2.75;;
55467;SDS011;41332;42.702;23.200;2022-09-13T17:56:59;2.85;;;2.65;;
55467;SDS011;41332;42.702;23.200;2022-09-13T17:59:24;2.45;;;2.30;;
55467;SDS011;41332;42.702;23.200;2022-09-13T18:01:51;2.80;;;2.60;;
55467;SDS011;41332;42.702;23.200;2022-09-13T18:04:18;3.03;;;2.72;;
55467;SDS011;41332;42.702;23.200;2022-09-13T18:06:45;3.17;;;2.08;;
55467;SDS011;41332;42.702;23.200;2022-09-13T18:09:11;3.85;;;2.63;;
55467;SDS011;41332;42.702;23.200;2022-09-13T18:11:38;2.65;;;2.38;;
55467;SDS011;41332;42.702;23.200;2022-09-13T18:14:04;2.47;;;2.28;;
55467;SDS011;41332;42.702;23.200;2022-09-13T18:16:31;2.53;;;2.33;;
55467;SDS011;41332;42.702;23.200;2022-09-13T18:18:57;2.85;;;2.60;;
55467;SDS011;41332;42.702;23.200;2022-09-13T18:21:24;2.47;;;2.28;;
55467;SDS011;41332;42.702;23.200;2022-09-13T18:23:51;5.65;;;2.17;;
55467;SDS011;41332;42.702;23.200;2022-09-13T18:26:19;2.10;;;2.00;;